sensor_id;sensor_type;location;lat;lon;timestamp;P1;durP1;ratioP1;P2;durP2;ratioP2
21215;SDS011;10765;50.954;5.322;2024-02-26T00:02:22;2.83;;;1.30;;
21215;SDS011;10765;50.954;5.322;2024-02-26T00:04:51;1.73;;;1.30;;
21215;SDS011;10765;50.954;5.322;2024-02-26T00:07:18;3.00;;;1.50;;
21215;SDS011;10765;50.954;5.322;2024-02-26T00:09:44;1.50;;;1.40;;
21215;SDS011;10765;50.954;5.322;2024-02-26T00:12:11;1.20;;;1.10;;
21215;SDS011;10765;50.954;5.322;2024-02-26T00:14:38;3.40;;;1.30;;
21215;SDS011;10765;50.954;5.322;2024-02-26T00:17:06;1.87;;;1.30;;
21215;SDS011;10765;50.954;5.322;2024-02-26T00:19:34;4.03;;;1.70;;
21215;SDS011;10765;50.954;5.322;2024-02-26T00:22:03;2.07;;;1.40;;
21215;SDS011;10765;50.954;5.322;2024-02-26T00:24:30;2.30;;;1.43;;
21215;SDS011;10765;50.954;5.322;2024-02-26T00:26:56;1.93;;;1.40;;
21215;SDS011;10765;50.954;5.322;2024-02-26T00:29:23;7.83;;;4.23;;
21215;SDS011;10765;50.954;5.322;2024-02-26T00:31:50;1.93;;;1.60;;
21215;SDS011;10765;50.954;5.322;2024-02-26T00:34:18;2.63;;;2.00;;
21215;SDS011;10765;50.954;5.322;2024-02-26T00:36:45;7.63;;;2.87;;
21215;SDS011;10765;50.954;5.322;2024-02-26T00:39:13;1.77;;;1.53;;
21215;SDS011;10765;50.954;5.322;2024-02-26T00:41:40;3.40;;;2.03;;
21215;SDS011;10765;50.954;5.322;2024-02-26T00:44:07;3.00;;;2.03;;
21215;SDS011;10765;50.954;5.322;2024-02-26T00:46:34;11.10;;;6.90;;
21215;SDS011;10765;50.954;5.322;2024-02-26T00:49:01;3.07;;;2.60;;
21215;SDS011;10765;50.954;5.322;2024-02-26T00:51:28;18.23;;;11.97;;
21215;SDS011;10765;50.954;5.322;2024-02-26T00:53:54;3.43;;;2.03;;
21215;SDS011;10765;50.954;5.322;2024-02-26T00:56:26;3.43;;;2.00;;
21215;SDS011;10765;50.954;5.322;2024-02-26T00:58:53;5.40;;;3.50;;
21215;SDS011;10765;50.954;5.322;2024-02-26T01:01:20;2.47;;;1.90;;
21215;SDS011;10765;50.954;5.322;2024-02-26T01:03:46;4.60;;;2.23;;
21215;SDS011;10765;50.954;5.322;2024-02-26T01:06:13;2.57;;;1.63;;
21215;SDS011;10765;50.954;5.322;2024-02-26T01:08:40;4.73;;;1.67;;
21215;SDS011;10765;50.954;5.322;2024-02-26T01:11:07;1.63;;;1.40;;
21215;SDS011;10765;50.954;5.322;2024-02-26T01:13:35;3.33;;;2.53;;
21215;SDS011;10765;50.954;5.322;2024-02-26T01:16:03;3.73;;;1.97;;
21215;SDS011;10765;50.954;5.322;2024-02-26T01:18:30;2.80;;;2.27;;
21215;SDS011;10765;50.954;5.322;2024-02-26T01:20:57;5.73;;;4.20;;
21215;SDS011;10765;50.954;5.322;2024-02-26T01:23:24;3.60;;;2.33;;
21215;SDS011;10765;50.954;5.322;2024-02-26T01:25:51;3.47;;;2.70;;
21215;SDS011;10765;50.954;5.322;2024-02-26T01:28:17;24.53;;;15.37;;
21215;SDS011;10765;50.954;5.322;2024-02-26T01:30:46;1.67;;;1.53;;
21215;SDS011;10765;50.954;5.322;2024-02-26T01:33:13;1.50;;;1.30;;
21215;SDS011;10765;50.954;5.322;2024-02-26T01:35:39;13.57;;;8.67;;
21215;SDS011;10765;50.954;5.322;2024-02-26T01:38:06;2.00;;;1.63;;
21215;SDS011;10765;50.954;5.322;2024-02-26T01:40:33;7.13;;;4.90;;
21215;SDS011;10765;50.954;5.322;2024-02-26T01:43:01;2.17;;;1.80;;
21215;SDS011;10765;50.954;5.322;2024-02-26T01:45:28;2.47;;;1.70;;
21215;SDS011;10765;50.954;5.322;2024-02-26T01:47:56;2.43;;;2.00;;
21215;SDS011;10765;50.954;5.322;2024-02-26T01:50:24;4.17;;;2.10;;
21215;SDS011;10765;50.954;5.322;2024-02-26T01:52:51;6.07;;;3.90;;
21215;SDS011;10765;50.954;5.322;2024-02-26T01:55:20;3.40;;;2.00;;
21215;SDS011;10765;50.954;5.322;2024-02-26T01:57:49;3.77;;;3.37;;
21215;SDS011;10765;50.954;5.322;2024-02-26T02:00:18;4.00;;;1.93;;
21215;SDS011;10765;50.954;5.322;2024-02-26T02:02:46;4.23;;;3.20;;
21215;SDS011;10765;50.954;5.322;2024-02-26T02:05:17;5.50;;;3.87;;
21215;SDS011;10765;50.954;5.322;2024-02-26T02:07:44;1.93;;;1.30;;
21215;SDS011;10765;50.954;5.322;2024-02-26T02:10:11;7.07;;;5.87;;
21215;SDS011;10765;50.954;5.322;2024-02-26T02:12:38;3.57;;;3.00;;
21215;SDS011;10765;50.954;5.322;2024-02-26T02:15:06;2.90;;;2.40;;
21215;SDS011;10765;50.954;5.322;2024-02-26T02:17:34;1.80;;;1.70;;
21215;SDS011;10765;50.954;5.322;2024-02-26T02:20:01;3.10;;;1.40;;
21215;SDS011;10765;50.954;5.322;2024-02-26T02:22:30;4.53;;;3.20;;
21215;SDS011;10765;50.954;5.322;2024-02-26T02:24:58;3.33;;;2.70;;
21215;SDS011;10765;50.954;5.322;2024-02-26T02:27:26;2.87;;;1.90;;
21215;SDS011;10765;50.954;5.322;2024-02-26T02:29:53;2.73;;;2.13;;
21215;SDS011;10765;50.954;5.322;2024-02-26T02:32:20;2.17;;;2.03;;
21215;SDS011;10765;50.954;5.322;2024-02-26T02:34:50;2.00;;;1.53;;
21215;SDS011;10765;50.954;5.322;2024-02-26T02:37:17;1.80;;;1.60;;
21215;SDS011;10765;50.954;5.322;2024-02-26T02:39:45;2.70;;;2.13;;
21215;SDS011;10765;50.954;5.322;2024-02-26T02:42:12;3.40;;;1.70;;
21215;SDS011;10765;50.954;5.322;2024-02-26T02:44:39;2.60;;;1.90;;
21215;SDS011;10765;50.954;5.322;2024-02-26T02:47:06;2.80;;;1.70;;
21215;SDS011;10765;50.954;5.322;2024-02-26T02:49:33;2.13;;;1.90;;
21215;SDS011;10765;50.954;5.322;2024-02-26T02:51:59;3.10;;;2.67;;
21215;SDS011;10765;50.954;5.322;2024-02-26T02:54:26;3.03;;;2.00;;
21215;SDS011;10765;50.954;5.322;2024-02-26T02:56:55;3.10;;;2.07;;
21215;SDS011;10765;50.954;5.322;2024-02-26T02:59:22;2.67;;;2.00;;
21215;SDS011;10765;50.954;5.322;2024-02-26T03:01:48;2.97;;;2.20;;
21215;SDS011;10765;50.954;5.322;2024-02-26T03:04:15;9.30;;;5.70;;
21215;SDS011;10765;50.954;5.322;2024-02-26T03:06:42;15.23;;;9.97;;
21215;SDS011;10765;50.954;5.322;2024-02-26T03:09:09;6.13;;;4.03;;
21215;SDS011;10765;50.954;5.322;2024-02-26T03:11:36;4.53;;;2.73;;
21215;SDS011;10765;50.954;5.322;2024-02-26T03:14:05;14.13;;;7.50;;
21215;SDS011;10765;50.954;5.322;2024-02-26T03:16:32;8.50;;;5.33;;
21215;SDS011;10765;50.954;5.322;2024-02-26T03:18:59;77.77;;;37.07;;
21215;SDS011;10765;50.954;5.322;2024-02-26T03:21:26;10.83;;;5.00;;
21215;SDS011;10765;50.954;5.322;2024-02-26T03:23:54;8.60;;;4.93;;
21215;SDS011;10765;50.954;5.322;2024-02-26T03:26:20;14.83;;;5.83;;
21215;SDS011;10765;50.954;5.322;2024-02-26T03:28:47;30.17;;;14.17;;
21215;SDS011;10765;50.954;5.322;2024-02-26T03:31:16;5.73;;;3.40;;
21215;SDS011;10765;50.954;5.322;2024-02-26T03:33:42;2.73;;;1.90;;
21215;SDS011;10765;50.954;5.322;2024-02-26T03:36:09;23.40;;;11.80;;
21215;SDS011;10765;50.954;5.322;2024-02-26T03:38:36;3.03;;;2.20;;
21215;SDS011;10765;50.954;5.322;2024-02-26T03:41:04;39.50;;;19.23;;
21215;SDS011;10765;50.954;5.322;2024-02-26T03:43:30;3.03;;;2.60;;
21215;SDS011;10765;50.954;5.322;2024-02-26T03:45:58;11.93;;;7.57;;
21215;SDS011;10765;50.954;5.322;2024-02-26T03:48:26;12.77;;;8.20;;
21215;SDS011;10765;50.954;5.322;2024-02-26T03:50:53;5.80;;;4.40;;
21215;SDS011;10765;50.954;5.322;2024-02-26T03:53:20;24.77;;;16.63;;
21215;SDS011;10765;50.954;5.322;2024-02-26T03:55:47;11.67;;;8.40;;
21215;SDS011;10765;50.954;5.322;2024-02-26T03:58:14;37.20;;;24.43;;
21215;SDS011;10765;50.954;5.322;2024-02-26T04:00:42;6.40;;;5.20;;
21215;SDS011;10765;50.954;5.322;2024-02-26T04:03:09;39.93;;;26.07;;
21215;SDS011;10765;50.954;5.322;2024-02-26T04:05:37;37.03;;;24.43;;
21215;SDS011;10765;50.954;5.322;2024-02-26T04:08:04;13.10;;;10.47;;
21215;SDS011;10765;50.954;5.322;2024-02-26T04:10:32;7.50;;;6.27;;
21215;SDS011;10765;50.954;5.322;2024-02-26T04:13:03;8.77;;;7.17;;
21215;SDS011;10765;50.954;5.322;2024-02-26T04:15:31;18.60;;;14.80;;
21215;SDS011;10765;50.954;5.322;2024-02-26T04:17:58;20.33;;;17.17;;
21215;SDS011;10765;50.954;5.322;2024-02-26T04:20:25;7.80;;;6.70;;
21215;SDS011;10765;50.954;5.322;2024-02-26T04:22:54;10.73;;;9.60;;
21215;SDS011;10765;50.954;5.322;2024-02-26T04:25:20;12.50;;;10.93;;
21215;SDS011;10765;50.954;5.322;2024-02-26T04:27:47;7.97;;;7.27;;
21215;SDS011;10765;50.954;5.322;2024-02-26T04:30:14;6.17;;;5.67;;
21215;SDS011;10765;50.954;5.322;2024-02-26T04:32:42;7.57;;;6.87;;
21215;SDS011;10765;50.954;5.322;2024-02-26T04:35:09;6.07;;;5.57;;
21215;SDS011;10765;50.954;5.322;2024-02-26T04:37:36;5.43;;;4.93;;
21215;SDS011;10765;50.954;5.322;2024-02-26T04:40:05;6.23;;;5.67;;
21215;SDS011;10765;50.954;5.322;2024-02-26T04:42:33;5.80;;;5.30;;
21215;SDS011;10765;50.954;5.322;2024-02-26T04:44:59;5.90;;;5.30;;
21215;SDS011;10765;50.954;5.322;2024-02-26T04:47:27;5.63;;;5.13;;
21215;SDS011;10765;50.954;5.322;2024-02-26T04:49:55;5.53;;;5.03;;
21215;SDS011;10765;50.954;5.322;2024-02-26T04:52:22;5.80;;;5.30;;
21215;SDS011;10765;50.954;5.322;2024-02-26T04:54:48;5.20;;;4.80;;
21215;SDS011;10765;50.954;5.322;2024-02-26T04:57:17;5.30;;;4.90;;
21215;SDS011;10765;50.954;5.322;2024-02-26T04:59:44;5.20;;;4.70;;
21215;SDS011;10765;50.954;5.322;2024-02-26T05:02:11;5.67;;;5.17;;
21215;SDS011;10765;50.954;5.322;2024-02-26T05:04:38;5.67;;;5.10;;
21215;SDS011;10765;50.954;5.322;2024-02-26T05:07:05;5.87;;;5.30;;
21215;SDS011;10765;50.954;5.322;2024-02-26T05:09:32;6.60;;;5.53;;
21215;SDS011;10765;50.954;5.322;2024-02-26T05:11:59;6.20;;;5.50;;
21215;SDS011;10765;50.954;5.322;2024-02-26T05:14:27;6.53;;;5.57;;
21215;SDS011;10765;50.954;5.322;2024-02-26T05:16:54;7.27;;;5.93;;
21215;SDS011;10765;50.954;5.322;2024-02-26T05:19:21;6.80;;;6.20;;
21215;SDS011;10765;50.954;5.322;2024-02-26T05:21:49;6.90;;;6.30;;
21215;SDS011;10765;50.954;5.322;2024-02-26T05:24:16;7.90;;;6.13;;
21215;SDS011;10765;50.954;5.322;2024-02-26T05:26:47;7.20;;;6.47;;
21215;SDS011;10765;50.954;5.322;2024-02-26T05:29:14;7.23;;;6.63;;
21215;SDS011;10765;50.954;5.322;2024-02-26T05:31:43;7.37;;;6.73;;
21215;SDS011;10765;50.954;5.322;2024-02-26T05:34:10;6.80;;;6.20;;
21215;SDS011;10765;50.954;5.322;2024-02-26T05:36:37;7.30;;;6.67;;
21215;SDS011;10765;50.954;5.322;2024-02-26T05:39:04;7.27;;;6.60;;
21215;SDS011;10765;50.954;5.322;2024-02-26T05:41:31;7.63;;;6.83;;
21215;SDS011;10765;50.954;5.322;2024-02-26T05:43:58;7.23;;;6.57;;
21215;SDS011;10765;50.954;5.322;2024-02-26T05:46:25;7.70;;;7.00;;
21215;SDS011;10765;50.954;5.322;2024-02-26T05:48:53;7.20;;;6.60;;
21215;SDS011;10765;50.954;5.322;2024-02-26T05:51:20;8.30;;;7.50;;
21215;SDS011;10765;50.954;5.322;2024-02-26T05:53:47;9.23;;;8.33;;
21215;SDS011;10765;50.954;5.322;2024-02-26T05:56:18;8.97;;;8.17;;
21215;SDS011;10765;50.954;5.322;2024-02-26T05:58:46;8.50;;;7.80;;
21215;SDS011;10765;50.954;5.322;2024-02-26T06:01:13;10.17;;;8.33;;
21215;SDS011;10765;50.954;5.322;2024-02-26T06:03:41;8.43;;;7.70;;
21215;SDS011;10765;50.954;5.322;2024-02-26T06:06:09;11.03;;;9.93;;
21215;SDS011;10765;50.954;5.322;2024-02-26T06:08:36;10.13;;;8.90;;
21215;SDS011;10765;50.954;5.322;2024-02-26T06:11:04;9.77;;;8.97;;
21215;SDS011;10765;50.954;5.322;2024-02-26T06:13:32;10.23;;;9.33;;
21215;SDS011;10765;50.954;5.322;2024-02-26T06:15:59;10.20;;;9.30;;
21215;SDS011;10765;50.954;5.322;2024-02-26T06:18:26;30.73;;;23.13;;
21215;SDS011;10765;50.954;5.322;2024-02-26T06:20:53;20.67;;;15.10;;
21215;SDS011;10765;50.954;5.322;2024-02-26T06:23:23;17.73;;;14.97;;
21215;SDS011;10765;50.954;5.322;2024-02-26T06:25:51;35.67;;;24.17;;
21215;SDS011;10765;50.954;5.322;2024-02-26T06:28:17;26.73;;;17.90;;
21215;SDS011;10765;50.954;5.322;2024-02-26T06:30:45;34.07;;;22.20;;
21215;SDS011;10765;50.954;5.322;2024-02-26T06:33:12;11.07;;;9.97;;
21215;SDS011;10765;50.954;5.322;2024-02-26T06:35:39;30.20;;;22.60;;
21215;SDS011;10765;50.954;5.322;2024-02-26T06:38:06;20.13;;;16.77;;
21215;SDS011;10765;50.954;5.322;2024-02-26T06:40:35;19.47;;;15.57;;
21215;SDS011;10765;50.954;5.322;2024-02-26T06:43:02;26.40;;;21.10;;
21215;SDS011;10765;50.954;5.322;2024-02-26T06:45:29;22.17;;;17.17;;
21215;SDS011;10765;50.954;5.322;2024-02-26T06:47:56;17.40;;;14.27;;
21215;SDS011;10765;50.954;5.322;2024-02-26T06:50:23;15.33;;;13.70;;
21215;SDS011;10765;50.954;5.322;2024-02-26T06:52:50;7.97;;;7.27;;
21215;SDS011;10765;50.954;5.322;2024-02-26T06:55:17;13.47;;;11.40;;
21215;SDS011;10765;50.954;5.322;2024-02-26T06:57:45;8.13;;;7.43;;
21215;SDS011;10765;50.954;5.322;2024-02-26T07:00:12;10.70;;;9.70;;
21215;SDS011;10765;50.954;5.322;2024-02-26T07:02:41;16.47;;;14.73;;
21215;SDS011;10765;50.954;5.322;2024-02-26T07:05:08;8.60;;;7.70;;
21215;SDS011;10765;50.954;5.322;2024-02-26T07:07:37;7.57;;;6.87;;
21215;SDS011;10765;50.954;5.322;2024-02-26T07:10:05;7.43;;;6.73;;
21215;SDS011;10765;50.954;5.322;2024-02-26T07:12:33;9.77;;;8.80;;
21215;SDS011;10765;50.954;5.322;2024-02-26T07:15:01;8.43;;;7.53;;
21215;SDS011;10765;50.954;5.322;2024-02-26T07:17:28;8.00;;;7.23;;
21215;SDS011;10765;50.954;5.322;2024-02-26T07:19:55;8.60;;;7.80;;
21215;SDS011;10765;50.954;5.322;2024-02-26T07:22:22;8.70;;;7.77;;
21215;SDS011;10765;50.954;5.322;2024-02-26T07:24:49;9.17;;;7.93;;
21215;SDS011;10765;50.954;5.322;2024-02-26T07:27:17;10.00;;;9.10;;
21215;SDS011;10765;50.954;5.322;2024-02-26T07:29:46;8.47;;;7.73;;
21215;SDS011;10765;50.954;5.322;2024-02-26T07:32:14;9.23;;;8.33;;
21215;SDS011;10765;50.954;5.322;2024-02-26T07:34:41;9.70;;;8.80;;
21215;SDS011;10765;50.954;5.322;2024-02-26T07:37:09;10.13;;;9.23;;
21215;SDS011;10765;50.954;5.322;2024-02-26T07:39:36;9.93;;;9.13;;
21215;SDS011;10765;50.954;5.322;2024-02-26T07:42:03;10.90;;;9.90;;
21215;SDS011;10765;50.954;5.322;2024-02-26T07:44:31;11.67;;;10.57;;
21215;SDS011;10765;50.954;5.322;2024-02-26T07:46:59;11.93;;;10.83;;
21215;SDS011;10765;50.954;5.322;2024-02-26T07:49:27;11.93;;;10.87;;
21215;SDS011;10765;50.954;5.322;2024-02-26T07:51:54;13.13;;;11.97;;
21215;SDS011;10765;50.954;5.322;2024-02-26T07:54:23;13.37;;;12.13;;
21215;SDS011;10765;50.954;5.322;2024-02-26T07:56:50;13.23;;;12.03;;
21215;SDS011;10765;50.954;5.322;2024-02-26T07:59:16;13.43;;;12.23;;
21215;SDS011;10765;50.954;5.322;2024-02-26T08:01:43;13.43;;;12.27;;
21215;SDS011;10765;50.954;5.322;2024-02-26T08:04:11;13.77;;;12.47;;
21215;SDS011;10765;50.954;5.322;2024-02-26T08:06:39;13.00;;;11.90;;
21215;SDS011;10765;50.954;5.322;2024-02-26T08:09:06;12.93;;;11.73;;
21215;SDS011;10765;50.954;5.322;2024-02-26T08:11:33;12.70;;;11.50;;
21215;SDS011;10765;50.954;5.322;2024-02-26T08:14:00;13.23;;;12.13;;
21215;SDS011;10765;50.954;5.322;2024-02-26T08:16:26;13.53;;;12.33;;
21215;SDS011;10765;50.954;5.322;2024-02-26T08:18:53;13.60;;;12.30;;
21215;SDS011;10765;50.954;5.322;2024-02-26T08:21:21;13.23;;;12.13;;
21215;SDS011;10765;50.954;5.322;2024-02-26T08:23:49;14.90;;;13.60;;
21215;SDS011;10765;50.954;5.322;2024-02-26T08:26:16;24.40;;;21.80;;
21215;SDS011;10765;50.954;5.322;2024-02-26T08:28:45;21.87;;;19.20;;
21215;SDS011;10765;50.954;5.322;2024-02-26T08:31:13;14.93;;;13.43;;
21215;SDS011;10765;50.954;5.322;2024-02-26T08:33:39;14.50;;;13.20;;
21215;SDS011;10765;50.954;5.322;2024-02-26T08:36:06;29.40;;;26.30;;
21215;SDS011;10765;50.954;5.322;2024-02-26T08:38:34;12.90;;;11.80;;
21215;SDS011;10765;50.954;5.322;2024-02-26T08:41:02;17.90;;;16.03;;
21215;SDS011;10765;50.954;5.322;2024-02-26T08:43:30;18.10;;;16.20;;
21215;SDS011;10765;50.954;5.322;2024-02-26T08:45:57;13.90;;;12.60;;
21215;SDS011;10765;50.954;5.322;2024-02-26T08:48:24;16.80;;;15.30;;
21215;SDS011;10765;50.954;5.322;2024-02-26T08:50:51;17.13;;;15.63;;
21215;SDS011;10765;50.954;5.322;2024-02-26T08:53:18;21.40;;;19.30;;
21215;SDS011;10765;50.954;5.322;2024-02-26T08:55:45;25.77;;;23.17;;
21215;SDS011;10765;50.954;5.322;2024-02-26T08:58:13;24.67;;;22.13;;
21215;SDS011;10765;50.954;5.322;2024-02-26T09:00:40;14.53;;;13.33;;
21215;SDS011;10765;50.954;5.322;2024-02-26T09:03:07;14.77;;;13.40;;
21215;SDS011;10765;50.954;5.322;2024-02-26T09:05:34;12.57;;;11.47;;
21215;SDS011;10765;50.954;5.322;2024-02-26T09:08:01;11.97;;;10.97;;
21215;SDS011;10765;50.954;5.322;2024-02-26T09:10:28;11.83;;;10.73;;
21215;SDS011;10765;50.954;5.322;2024-02-26T09:12:55;12.27;;;11.27;;
21215;SDS011;10765;50.954;5.322;2024-02-26T09:15:24;11.70;;;10.60;;
21215;SDS011;10765;50.954;5.322;2024-02-26T09:17:50;12.10;;;10.97;;
21215;SDS011;10765;50.954;5.322;2024-02-26T09:20:17;10.37;;;9.57;;
21215;SDS011;10765;50.954;5.322;2024-02-26T09:22:45;11.13;;;10.03;;
21215;SDS011;10765;50.954;5.322;2024-02-26T09:25:12;10.03;;;9.13;;
21215;SDS011;10765;50.954;5.322;2024-02-26T09:27:40;9.90;;;9.07;;
21215;SDS011;10765;50.954;5.322;2024-02-26T09:30:07;9.67;;;8.77;;
21215;SDS011;10765;50.954;5.322;2024-02-26T09:32:36;10.23;;;9.33;;
21215;SDS011;10765;50.954;5.322;2024-02-26T09:35:04;9.40;;;8.60;;
21215;SDS011;10765;50.954;5.322;2024-02-26T09:37:31;9.30;;;8.40;;
21215;SDS011;10765;50.954;5.322;2024-02-26T09:39:58;8.40;;;7.70;;
21215;SDS011;10765;50.954;5.322;2024-02-26T09:42:26;8.03;;;7.23;;
21215;SDS011;10765;50.954;5.322;2024-02-26T09:44:53;8.57;;;7.87;;
21215;SDS011;10765;50.954;5.322;2024-02-26T09:47:21;9.50;;;8.70;;
21215;SDS011;10765;50.954;5.322;2024-02-26T09:49:51;18.00;;;16.10;;
21215;SDS011;10765;50.954;5.322;2024-02-26T09:52:19;23.60;;;17.83;;
21215;SDS011;10765;50.954;5.322;2024-02-26T09:54:47;13.23;;;11.53;;
21215;SDS011;10765;50.954;5.322;2024-02-26T09:57:15;31.87;;;24.57;;
21215;SDS011;10765;50.954;5.322;2024-02-26T09:59:43;22.23;;;18.50;;
21215;SDS011;10765;50.954;5.322;2024-02-26T10:02:11;26.87;;;21.67;;
21215;SDS011;10765;50.954;5.322;2024-02-26T10:04:39;42.10;;;27.63;;
21215;SDS011;10765;50.954;5.322;2024-02-26T10:07:09;24.20;;;19.67;;
21215;SDS011;10765;50.954;5.322;2024-02-26T10:09:38;20.07;;;17.90;;
21215;SDS011;10765;50.954;5.322;2024-02-26T10:12:06;18.40;;;16.43;;
21215;SDS011;10765;50.954;5.322;2024-02-26T10:14:35;14.67;;;13.17;;
21215;SDS011;10765;50.954;5.322;2024-02-26T10:17:02;18.33;;;16.53;;
21215;SDS011;10765;50.954;5.322;2024-02-26T10:19:33;11.37;;;10.47;;
21215;SDS011;10765;50.954;5.322;2024-02-26T10:22:00;18.20;;;16.60;;
21215;SDS011;10765;50.954;5.322;2024-02-26T10:24:31;17.33;;;15.63;;
21215;SDS011;10765;50.954;5.322;2024-02-26T10:26:59;15.50;;;14.03;;
21215;SDS011;10765;50.954;5.322;2024-02-26T10:29:26;18.87;;;17.07;;
21215;SDS011;10765;50.954;5.322;2024-02-26T10:31:53;17.17;;;15.47;;
21215;SDS011;10765;50.954;5.322;2024-02-26T10:34:20;22.73;;;20.43;;
21215;SDS011;10765;50.954;5.322;2024-02-26T10:36:48;19.07;;;17.27;;
21215;SDS011;10765;50.954;5.322;2024-02-26T10:39:15;16.40;;;14.97;;
21215;SDS011;10765;50.954;5.322;2024-02-26T10:41:44;17.30;;;15.57;;
21215;SDS011;10765;50.954;5.322;2024-02-26T10:44:11;23.87;;;21.60;;
21215;SDS011;10765;50.954;5.322;2024-02-26T10:46:40;21.83;;;19.83;;
21215;SDS011;10765;50.954;5.322;2024-02-26T10:49:12;22.67;;;20.63;;
21215;SDS011;10765;50.954;5.322;2024-02-26T10:51:40;24.10;;;21.83;;
21215;SDS011;10765;50.954;5.322;2024-02-26T10:54:10;19.13;;;17.33;;
21215;SDS011;10765;50.954;5.322;2024-02-26T10:56:41;18.07;;;16.47;;
21215;SDS011;10765;50.954;5.322;2024-02-26T10:59:12;16.83;;;15.43;;
21215;SDS011;10765;50.954;5.322;2024-02-26T11:01:40;16.73;;;15.23;;
21215;SDS011;10765;50.954;5.322;2024-02-26T11:04:11;18.53;;;17.03;;
21215;SDS011;10765;50.954;5.322;2024-02-26T11:06:39;20.10;;;18.40;;
21215;SDS011;10765;50.954;5.322;2024-02-26T11:09:06;19.30;;;17.60;;
21215;SDS011;10765;50.954;5.322;2024-02-26T11:11:38;20.90;;;19.20;;
21215;SDS011;10765;50.954;5.322;2024-02-26T11:14:08;22.90;;;20.97;;
21215;SDS011;10765;50.954;5.322;2024-02-26T11:16:36;20.87;;;19.17;;
21215;SDS011;10765;50.954;5.322;2024-02-26T11:19:06;20.53;;;18.83;;
21215;SDS011;10765;50.954;5.322;2024-02-26T11:21:35;21.63;;;19.73;;
21215;SDS011;10765;50.954;5.322;2024-02-26T11:24:06;19.37;;;17.67;;
21215;SDS011;10765;50.954;5.322;2024-02-26T11:26:36;21.50;;;19.67;;
21215;SDS011;10765;50.954;5.322;2024-02-26T11:29:08;25.93;;;23.53;;
21215;SDS011;10765;50.954;5.322;2024-02-26T11:31:37;18.37;;;16.87;;
21215;SDS011;10765;50.954;5.322;2024-02-26T11:34:06;31.67;;;28.30;;
21215;SDS011;10765;50.954;5.322;2024-02-26T11:36:33;30.40;;;27.20;;
21215;SDS011;10765;50.954;5.322;2024-02-26T11:39:00;20.60;;;18.70;;
21215;SDS011;10765;50.954;5.322;2024-02-26T11:41:27;44.50;;;31.07;;
21215;SDS011;10765;50.954;5.322;2024-02-26T11:43:57;51.83;;;36.67;;
21215;SDS011;10765;50.954;5.322;2024-02-26T11:46:27;35.77;;;30.97;;
21215;SDS011;10765;50.954;5.322;2024-02-26T11:48:56;40.67;;;35.10;;
21215;SDS011;10765;50.954;5.322;2024-02-26T11:51:26;26.37;;;23.67;;
21215;SDS011;10765;50.954;5.322;2024-02-26T11:53:54;24.50;;;21.93;;
21215;SDS011;10765;50.954;5.322;2024-02-26T11:56:23;30.83;;;27.57;;
21215;SDS011;10765;50.954;5.322;2024-02-26T11:58:58;30.17;;;27.03;;
21215;SDS011;10765;50.954;5.322;2024-02-26T12:01:37;28.93;;;25.90;;
21215;SDS011;10765;50.954;5.322;2024-02-26T12:04:11;46.67;;;41.67;;
21215;SDS011;10765;50.954;5.322;2024-02-26T12:06:41;26.17;;;23.57;;
21215;SDS011;10765;50.954;5.322;2024-02-26T12:09:09;45.37;;;40.37;;
21215;SDS011;10765;50.954;5.322;2024-02-26T12:11:38;20.80;;;19.00;;
21215;SDS011;10765;50.954;5.322;2024-02-26T12:14:06;26.17;;;23.47;;
21215;SDS011;10765;50.954;5.322;2024-02-26T12:16:35;45.60;;;31.57;;
21215;SDS011;10765;50.954;5.322;2024-02-26T12:19:04;25.40;;;22.80;;
21215;SDS011;10765;50.954;5.322;2024-02-26T12:21:33;26.23;;;23.53;;
21215;SDS011;10765;50.954;5.322;2024-02-26T12:24:11;36.60;;;31.20;;
21215;SDS011;10765;50.954;5.322;2024-02-26T12:26:38;18.63;;;17.03;;
21215;SDS011;10765;50.954;5.322;2024-02-26T12:29:05;34.10;;;30.60;;
21215;SDS011;10765;50.954;5.322;2024-02-26T12:31:32;25.77;;;23.43;;
21215;SDS011;10765;50.954;5.322;2024-02-26T12:34:03;21.07;;;19.20;;
21215;SDS011;10765;50.954;5.322;2024-02-26T12:36:31;29.50;;;26.73;;
21215;SDS011;10765;50.954;5.322;2024-02-26T12:38:59;23.93;;;21.73;;
21215;SDS011;10765;50.954;5.322;2024-02-26T12:41:29;20.70;;;18.80;;
21215;SDS011;10765;50.954;5.322;2024-02-26T12:43:56;18.00;;;16.43;;
21215;SDS011;10765;50.954;5.322;2024-02-26T12:46:24;14.47;;;13.37;;
21215;SDS011;10765;50.954;5.322;2024-02-26T12:48:51;16.57;;;15.00;;
21215;SDS011;10765;50.954;5.322;2024-02-26T12:51:20;24.07;;;21.27;;
21215;SDS011;10765;50.954;5.322;2024-02-26T12:53:48;14.77;;;13.50;;
21215;SDS011;10765;50.954;5.322;2024-02-26T12:56:17;12.70;;;11.67;;
21215;SDS011;10765;50.954;5.322;2024-02-26T12:58:44;11.77;;;10.87;;
21215;SDS011;10765;50.954;5.322;2024-02-26T13:01:14;11.20;;;10.33;;
21215;SDS011;10765;50.954;5.322;2024-02-26T13:03:42;11.80;;;10.90;;
21215;SDS011;10765;50.954;5.322;2024-02-26T13:06:09;11.40;;;10.50;;
21215;SDS011;10765;50.954;5.322;2024-02-26T13:08:38;10.87;;;10.07;;
21215;SDS011;10765;50.954;5.322;2024-02-26T13:11:05;10.63;;;9.83;;
21215;SDS011;10765;50.954;5.322;2024-02-26T13:13:33;9.70;;;9.00;;
21215;SDS011;10765;50.954;5.322;2024-02-26T13:16:03;10.07;;;9.27;;
21215;SDS011;10765;50.954;5.322;2024-02-26T13:18:33;11.33;;;10.33;;
21215;SDS011;10765;50.954;5.322;2024-02-26T13:21:11;10.57;;;9.77;;
21215;SDS011;10765;50.954;5.322;2024-02-26T13:23:41;11.20;;;10.27;;
21215;SDS011;10765;50.954;5.322;2024-02-26T13:26:11;12.43;;;11.43;;
21215;SDS011;10765;50.954;5.322;2024-02-26T13:28:39;12.23;;;11.23;;
21215;SDS011;10765;50.954;5.322;2024-02-26T13:31:07;13.10;;;11.90;;
21215;SDS011;10765;50.954;5.322;2024-02-26T13:33:34;13.07;;;11.97;;
21215;SDS011;10765;50.954;5.322;2024-02-26T13:36:02;18.10;;;16.40;;
21215;SDS011;10765;50.954;5.322;2024-02-26T13:38:30;19.57;;;17.57;;
21215;SDS011;10765;50.954;5.322;2024-02-26T13:40:58;19.87;;;17.87;;
21215;SDS011;10765;50.954;5.322;2024-02-26T13:43:25;30.30;;;24.10;;
21215;SDS011;10765;50.954;5.322;2024-02-26T13:45:52;19.43;;;17.60;;
21215;SDS011;10765;50.954;5.322;2024-02-26T13:48:19;18.13;;;16.47;;
21215;SDS011;10765;50.954;5.322;2024-02-26T13:50:46;38.03;;;30.43;;
21215;SDS011;10765;50.954;5.322;2024-02-26T13:53:13;22.90;;;20.53;;
21215;SDS011;10765;50.954;5.322;2024-02-26T13:55:41;40.43;;;33.47;;
21215;SDS011;10765;50.954;5.322;2024-02-26T13:58:11;24.87;;;21.50;;
21215;SDS011;10765;50.954;5.322;2024-02-26T14:00:39;28.20;;;24.47;;
21215;SDS011;10765;50.954;5.322;2024-02-26T14:03:06;34.00;;;29.67;;
21215;SDS011;10765;50.954;5.322;2024-02-26T14:05:33;20.60;;;18.50;;
21215;SDS011;10765;50.954;5.322;2024-02-26T14:08:00;22.67;;;20.37;;
21215;SDS011;10765;50.954;5.322;2024-02-26T14:10:28;23.03;;;20.90;;
21215;SDS011;10765;50.954;5.322;2024-02-26T14:12:55;23.93;;;21.53;;
21215;SDS011;10765;50.954;5.322;2024-02-26T14:15:23;25.33;;;22.83;;
21215;SDS011;10765;50.954;5.322;2024-02-26T14:17:50;22.60;;;20.43;;
21215;SDS011;10765;50.954;5.322;2024-02-26T14:20:21;23.90;;;21.67;;
21215;SDS011;10765;50.954;5.322;2024-02-26T14:22:48;24.20;;;22.07;;
21215;SDS011;10765;50.954;5.322;2024-02-26T14:25:18;23.23;;;21.23;;
21215;SDS011;10765;50.954;5.322;2024-02-26T14:27:45;20.87;;;19.00;;
21215;SDS011;10765;50.954;5.322;2024-02-26T14:30:12;20.03;;;18.33;;
21215;SDS011;10765;50.954;5.322;2024-02-26T14:32:41;20.17;;;18.27;;
21215;SDS011;10765;50.954;5.322;2024-02-26T14:35:08;21.30;;;19.30;;
21215;SDS011;10765;50.954;5.322;2024-02-26T14:37:36;19.77;;;18.07;;